createdAt,value
2023-01-23T00:04:05.662Z,2.53
2023-01-23T00:10:13.455Z,2.57
2023-01-23T00:18:19.442Z,2.56
2023-01-23T00:20:47.114Z,2.57
2023-01-23T00:28:33.361Z,2.56
2023-01-23T00:31:03.835Z,2.56
2023-01-23T00:34:35.914Z,2.59
2023-01-23T00:40:09.502Z,2.59
2023-01-23T00:42:09.551Z,2.59
2023-01-23T00:45:41.911Z,2.60
2023-01-23T00:48:11.319Z,2.59
2023-01-23T00:52:12.799Z,2.60
2023-01-23T00:54:12.474Z,2.60
2023-01-23T00:58:40.900Z,2.61
2023-01-23T01:01:40.096Z,2.61
2023-01-23T01:02:40.029Z,2.60
2023-01-23T01:03:40.051Z,2.61
2023-01-23T01:06:54.875Z,2.60
2023-01-23T01:08:23.043Z,2.61
2023-01-23T01:10:22.590Z,2.63
2023-01-23T01:13:22.766Z,2.64
2023-01-23T01:15:23.470Z,2.64
2023-01-23T01:16:53.837Z,2.61
2023-01-23T01:18:22.656Z,2.61
2023-01-23T01:26:25.766Z,2.66
2023-01-23T01:31:31.341Z,2.66
2023-01-23T01:32:59.999Z,2.66
2023-01-23T01:34:30.238Z,2.67
2023-01-23T01:39:11.462Z,2.69
2023-01-23T01:42:45.908Z,2.69
2023-01-23T01:50:20.189Z,2.63
2023-01-23T01:55:59.735Z,2.61
2023-01-23T01:57:29.632Z,2.63
2023-01-23T02:01:09.118Z,2.64
2023-01-23T02:05:39.004Z,2.64
2023-01-23T02:10:08.404Z,2.63
2023-01-23T02:12:37.818Z,2.64
2023-01-23T02:14:38.187Z,2.64
2023-01-23T02:16:37.447Z,2.64
2023-01-23T02:19:11.008Z,2.66
2023-01-23T02:24:22.680Z,2.67
2023-01-23T02:27:53.730Z,2.64
2023-01-23T02:32:05.650Z,2.67
2023-01-23T02:34:04.762Z,2.69
2023-01-23T02:36:05.730Z,2.67
2023-01-23T02:38:34.229Z,2.66
2023-01-23T02:42:35.615Z,2.72
2023-01-23T02:46:36.922Z,2.69
2023-01-23T02:52:28.888Z,2.74
2023-01-23T03:01:14.936Z,2.77
2023-01-23T03:03:18.036Z,2.79
2023-01-23T03:05:16.746Z,2.79
2023-01-23T03:07:15.554Z,2.79
2023-01-23T03:10:18.498Z,2.78
2023-01-23T03:12:49.617Z,2.79
2023-01-23T03:16:13.643Z,2.81
2023-01-23T03:18:13.995Z,2.81
2023-01-23T03:20:48.005Z,2.84
2023-01-23T03:23:18.838Z,2.85
2023-01-23T03:25:18.362Z,2.84
2023-01-23T03:27:50.238Z,2.85
2023-01-23T03:29:20.793Z,2.85
2023-01-23T03:32:53.068Z,2.87
2023-01-23T03:34:52.820Z,2.87
2023-01-23T03:36:51.384Z,2.85
2023-01-23T03:41:29.107Z,2.87
2023-01-23T03:45:11.875Z,2.87
2023-01-23T03:46:11.793Z,2.89
2023-01-23T03:47:11.811Z,2.90
2023-01-23T03:49:11.981Z,2.90
2023-01-23T03:52:15.542Z,2.87
2023-01-23T03:56:21.288Z,2.84
2023-01-23T03:57:51.335Z,2.84
2023-01-23T03:59:21.155Z,2.84
2023-01-23T04:00:51.582Z,2.84
2023-01-23T04:02:22.584Z,2.82
2023-01-23T04:06:02.282Z,2.82
2023-01-23T04:07:31.324Z,2.84
2023-01-23T04:09:01.436Z,2.81
2023-01-23T04:14:34.018Z,2.77
2023-01-23T04:17:05.590Z,2.77
2023-01-23T04:19:37.140Z,2.77
2023-01-23T04:21:07.255Z,2.77
2023-01-23T04:22:37.352Z,2.77
2023-01-23T04:24:50.066Z,2.77
2023-01-23T04:26:52.113Z,2.78
2023-01-23T04:29:54.837Z,2.74
2023-01-23T04:31:23.433Z,2.74
2023-01-23T04:32:53.400Z,2.75
2023-01-23T04:34:35.004Z,2.74
2023-01-23T04:36:35.396Z,2.75
2023-01-23T04:40:06.742Z,2.75
2023-01-23T04:43:10.267Z,2.75
2023-01-23T04:49:14.791Z,2.77
2023-01-23T04:50:45.731Z,2.79
2023-01-23T04:52:15.850Z,2.79
2023-01-23T04:56:16.982Z,2.79
2023-01-23T05:02:32.816Z,2.87
2023-01-23T05:06:36.030Z,2.84
2023-01-23T05:08:06.116Z,2.82
2023-01-23T05:10:37.671Z,2.84
2023-01-23T05:17:51.860Z,2.85
2023-01-23T05:19:21.989Z,2.85
2023-01-23T05:20:52.060Z,2.85
2023-01-23T05:22:57.645Z,2.84
2023-01-23T05:26:26.373Z,2.84
2023-01-23T05:27:55.631Z,2.82
2023-01-23T05:30:28.030Z,2.84
2023-01-23T05:31:58.072Z,2.85
2023-01-23T05:35:56.835Z,2.84
2023-01-23T05:43:11.399Z,2.92
2023-01-23T05:46:40.045Z,2.90
2023-01-23T05:55:48.391Z,2.82
2023-01-23T05:57:19.354Z,2.84
2023-01-23T05:59:19.068Z,2.87
2023-01-23T06:01:56.183Z,2.87
2023-01-23T06:03:55.833Z,2.84
2023-01-23T06:06:26.542Z,2.84
2023-01-23T06:13:33.367Z,2.81
2023-01-23T06:20:02.500Z,2.85
2023-01-23T06:24:36.923Z,2.84
2023-01-23T06:27:09.271Z,2.87
2023-01-23T06:31:42.103Z,2.87
2023-01-23T06:37:48.066Z,2.85
2023-01-23T06:40:49.528Z,2.87
2023-01-23T06:45:12.695Z,2.89
2023-01-23T06:47:39.991Z,2.90
2023-01-23T06:51:41.671Z,2.92
2023-01-23T06:58:25.938Z,2.90
2023-01-23T06:59:55.715Z,2.90
2023-01-23T07:01:25.553Z,2.90
2023-01-23T07:06:34.299Z,2.93
2023-01-23T07:08:04.980Z,2.96
2023-01-23T07:11:35.355Z,3.00
2023-01-23T07:17:10.793Z,3.02
2023-01-23T07:19:43.219Z,2.97
2023-01-23T07:23:16.175Z,2.96
2023-01-23T07:24:46.270Z,2.96
2023-01-23T07:27:46.843Z,2.97
2023-01-23T07:29:15.945Z,2.96
2023-01-23T07:38:55.046Z,2.99
2023-01-23T07:42:57.019Z,3.00
2023-01-23T07:50:46.051Z,3.02
2023-01-23T07:53:16.906Z,3.03
2023-01-23T08:00:55.773Z,3.06
2023-01-23T08:03:58.344Z,3.05
2023-01-23T08:09:03.801Z,3.10
2023-01-23T08:11:37.880Z,3.10
2023-01-23T08:16:45.107Z,3.13
2023-01-23T08:18:13.874Z,3.13
2023-01-23T08:19:44.509Z,3.14
2023-01-23T08:23:52.652Z,3.13
2023-01-23T08:26:22.383Z,3.13
2023-01-23T08:29:44.887Z,3.15
2023-01-23T08:33:27.723Z,3.20
2023-01-23T08:35:01.902Z,3.18
2023-01-23T08:38:02.565Z,3.18
2023-01-23T08:40:33.670Z,3.23
2023-01-23T08:45:07.271Z,3.24
2023-01-23T08:50:41.583Z,3.26
2023-01-23T08:52:11.706Z,3.28
2023-01-23T08:53:41.770Z,3.28
2023-01-23T08:56:41.966Z,3.28
2023-01-23T08:59:43.003Z,3.33
2023-01-23T09:04:15.844Z,3.32
2023-01-23T09:08:46.934Z,3.35
2023-01-23T09:12:51.120Z,3.39
2023-01-23T09:14:49.027Z,3.43
2023-01-23T09:18:25.319Z,3.45
2023-01-23T09:22:37.912Z,3.52
2023-01-23T09:24:07.727Z,3.57
2023-01-23T09:29:14.710Z,3.62
2023-01-23T09:35:10.455Z,3.66
2023-01-23T09:36:43.380Z,3.66
2023-01-23T09:39:09.635Z,3.66
2023-01-23T09:42:08.537Z,3.66
2023-01-23T09:45:22.414Z,3.73
2023-01-23T09:52:52.140Z,3.76
2023-01-23T09:54:22.339Z,3.73
2023-01-23T09:58:23.916Z,3.73
2023-01-23T10:00:00.104Z,3.76
2023-01-23T10:03:58.699Z,3.78
2023-01-23T10:05:28.317Z,3.76
2023-01-23T10:06:58.753Z,3.78
2023-01-23T10:11:31.215Z,3.79
2023-01-23T10:14:29.562Z,3.87
2023-01-23T10:19:27.816Z,3.87
2023-01-23T10:22:28.232Z,3.87
2023-01-23T10:32:38.619Z,3.91
2023-01-23T10:34:08.208Z,3.91
2023-01-23T10:35:08.145Z,3.91
2023-01-23T10:36:08.147Z,3.88
2023-01-23T10:37:39.989Z,3.90
2023-01-23T10:40:09.631Z,3.88
2023-01-23T10:42:42.383Z,3.94
2023-01-23T10:44:42.304Z,3.94
2023-01-23T10:46:41.210Z,3.96
2023-01-23T10:48:47.096Z,3.96
2023-01-23T10:50:17.702Z,3.96
2023-01-23T10:52:48.212Z,3.94
2023-01-23T10:55:20.787Z,3.93
2023-01-23T10:56:50.067Z,3.94
2023-01-23T10:58:49.924Z,3.93
2023-01-23T11:00:19.874Z,3.93
2023-01-23T11:02:23.693Z,3.94
2023-01-23T11:07:24.144Z,3.98
2023-01-23T11:09:58.244Z,4.05
2023-01-23T11:12:26.436Z,4.05
2023-01-23T11:16:29.743Z,4.05
2023-01-23T11:18:00.192Z,4.04
2023-01-23T11:20:00.651Z,4.04
2023-01-23T11:23:33.645Z,4.05
2023-01-23T11:25:44.043Z,4.06
2023-01-23T11:31:42.783Z,4.08
2023-01-23T11:37:18.209Z,4.02
2023-01-23T11:46:43.640Z,3.97
2023-01-23T11:53:16.768Z,4.05
2023-01-23T11:54:45.947Z,4.06
2023-01-23T11:56:59.483Z,4.09
2023-01-23T11:59:30.505Z,4.08
2023-01-23T12:01:00.740Z,4.09
2023-01-23T12:03:04.071Z,4.12
2023-01-23T12:07:07.114Z,4.18
2023-01-23T12:10:08.334Z,4.20
2023-01-23T12:13:09.262Z,4.23
2023-01-23T12:15:39.053Z,4.26
2023-01-23T12:17:08.905Z,4.26
2023-01-23T12:18:40.412Z,4.26
2023-01-23T12:20:09.098Z,4.26
2023-01-23T12:22:10.885Z,4.27
2023-01-23T12:26:24.180Z,4.26
2023-01-23T12:28:26.087Z,4.33
2023-01-23T12:29:56.275Z,4.37
2023-01-23T12:32:59.712Z,4.41
2023-01-23T12:36:00.330Z,4.45
2023-01-23T12:43:07.540Z,4.30
2023-01-23T12:44:39.662Z,4.27
2023-01-23T12:47:12.563Z,4.18
2023-01-23T12:50:15.503Z,4.24
2023-01-23T12:51:46.105Z,4.27
2023-01-23T12:53:46.667Z,4.30
2023-01-23T12:55:17.521Z,4.34
2023-01-23T12:56:46.748Z,4.36
2023-01-23T13:00:01.737Z,4.34
2023-01-23T13:02:01.407Z,4.41
2023-01-23T13:05:06.000Z,4.48
2023-01-23T13:06:35.054Z,4.50
2023-01-23T13:09:17.859Z,4.54
2023-01-23T13:10:39.852Z,4.59
2023-01-23T13:12:09.998Z,4.60
2023-01-23T13:14:22.795Z,4.62
2023-01-23T13:17:22.100Z,4.60
2023-01-23T13:20:23.127Z,4.62
2023-01-23T13:21:53.388Z,4.63
2023-01-23T13:23:23.402Z,4.63
2023-01-23T13:25:57.676Z,4.69
2023-01-23T13:28:35.470Z,4.67
2023-01-23T13:32:02.049Z,4.63
2023-01-23T13:36:38.816Z,4.65
2023-01-23T13:38:08.947Z,4.66
2023-01-23T13:41:10.783Z,4.60
2023-01-23T13:45:13.895Z,4.62
2023-01-23T13:49:48.512Z,4.63
2023-01-23T13:57:29.723Z,4.59
2023-01-23T14:01:10.921Z,4.54
2023-01-23T14:04:13.586Z,4.55
2023-01-23T14:08:12.451Z,4.51
2023-01-23T14:13:15.305Z,4.59
2023-01-23T14:17:17.997Z,4.60
2023-01-23T14:20:30.193Z,4.59
2023-01-23T14:22:31.335Z,4.62
2023-01-23T14:24:31.752Z,4.63
2023-01-23T14:26:05.130Z,4.63
2023-01-23T14:30:08.864Z,4.63
2023-01-23T14:33:07.831Z,4.60
2023-01-23T14:35:09.093Z,4.58
2023-01-23T14:40:12.498Z,4.58
2023-01-23T14:41:41.823Z,4.52
2023-01-23T14:44:12.090Z,4.52
2023-01-23T14:46:12.908Z,4.51
2023-01-23T14:48:12.539Z,4.51
2023-01-23T14:49:43.173Z,4.52
2023-01-23T14:56:15.950Z,4.51
2023-01-23T14:58:47.489Z,4.50
2023-01-23T15:00:18.120Z,4.50
2023-01-23T15:04:21.013Z,4.50
2023-01-23T15:05:51.479Z,4.48
2023-01-23T15:07:51.625Z,4.45
2023-01-23T15:09:51.408Z,4.45
2023-01-23T15:19:27.521Z,4.48
2023-01-23T15:22:28.072Z,4.48
2023-01-23T15:27:33.182Z,4.44
2023-01-23T15:29:33.634Z,4.42
2023-01-23T15:31:03.796Z,4.44
2023-01-23T15:32:35.057Z,4.40
2023-01-23T15:34:03.902Z,4.34
2023-01-23T15:36:05.056Z,4.34
2023-01-23T15:37:34.556Z,4.36
2023-01-23T15:40:19.116Z,4.37
2023-01-23T15:43:55.379Z,4.34
2023-01-23T15:47:56.236Z,4.33
2023-01-23T15:51:29.233Z,4.32
2023-01-23T15:53:30.436Z,4.34
2023-01-23T16:02:55.126Z,4.34
2023-01-23T16:04:12.771Z,4.32
2023-01-23T16:06:13.195Z,4.27
2023-01-23T16:07:44.121Z,4.24
2023-01-23T16:09:47.448Z,4.23
2023-01-23T16:11:17.346Z,4.22
2023-01-23T16:14:49.238Z,4.22
2023-01-23T16:17:49.456Z,4.23
2023-01-23T16:19:19.559Z,4.23
2023-01-23T16:21:19.969Z,4.26
2023-01-23T16:23:19.593Z,4.29
2023-01-23T16:24:49.702Z,4.32
2023-01-23T16:26:51.283Z,4.32
2023-01-23T16:29:21.455Z,4.32
2023-01-23T16:33:56.148Z,4.24
2023-01-23T16:36:57.174Z,4.27
2023-01-23T16:38:28.096Z,4.27
2023-01-23T16:40:58.815Z,4.26
2023-01-23T16:45:42.253Z,4.24
2023-01-23T16:48:43.287Z,4.16
2023-01-23T16:51:14.036Z,4.18
2023-01-23T16:53:13.658Z,4.22
2023-01-23T16:55:14.066Z,4.18
2023-01-23T16:59:48.495Z,4.20
2023-01-23T17:03:19.432Z,4.16
2023-01-23T17:13:53.601Z,4.16
2023-01-23T17:17:56.584Z,4.16
2023-01-23T17:25:29.400Z,4.14
2023-01-23T17:28:12.482Z,4.12
2023-01-23T17:31:02.836Z,4.14
2023-01-23T17:38:06.408Z,4.09
2023-01-23T17:39:36.557Z,4.08
2023-01-23T17:41:18.047Z,4.08
2023-01-23T17:42:48.168Z,4.08
2023-01-23T17:43:48.121Z,4.05
2023-01-23T17:44:48.181Z,4.05
2023-01-23T17:45:48.127Z,4.06
2023-01-23T17:49:22.578Z,4.06
2023-01-23T17:52:56.202Z,4.08
2023-01-23T17:54:55.610Z,4.06
2023-01-23T18:00:56.912Z,4.06
2023-01-23T18:04:57.453Z,4.00
2023-01-23T18:06:25.872Z,3.98
2023-01-23T18:08:55.302Z,4.00
2023-01-23T18:11:25.514Z,4.02
2023-01-23T18:13:56.297Z,3.98
2023-01-23T18:19:27.703Z,4.00
2023-01-23T18:23:57.245Z,4.04
2023-01-23T18:25:27.364Z,4.04
2023-01-23T18:30:27.672Z,4.06
2023-01-23T18:32:27.214Z,4.08
2023-01-23T18:34:26.726Z,4.08
2023-01-23T18:37:56.053Z,4.05
2023-01-23T18:43:23.137Z,4.06
2023-01-23T18:45:27.222Z,4.06
2023-01-23T18:47:23.575Z,4.04
2023-01-23T18:57:58.130Z,4.06
2023-01-23T19:07:24.425Z,3.98
2023-01-23T19:08:51.612Z,3.97
2023-01-23T19:11:23.913Z,3.96
2023-01-23T19:13:54.676Z,3.97
2023-01-23T19:15:55.102Z,3.98
2023-01-23T19:18:39.196Z,3.97
2023-01-23T19:20:57.049Z,3.96
2023-01-23T19:24:28.725Z,3.96
2023-01-23T19:27:29.236Z,3.96
2023-01-23T19:29:28.722Z,3.94
2023-01-23T19:32:05.085Z,3.91
2023-01-23T19:33:28.625Z,3.88
2023-01-23T19:36:58.028Z,3.87
2023-01-23T19:38:27.747Z,3.88
2023-01-23T19:39:58.075Z,3.87
2023-01-23T19:43:13.683Z,3.90
2023-01-23T19:44:30.658Z,3.91
2023-01-23T19:47:30.259Z,3.90
2023-01-23T19:50:10.668Z,3.94
2023-01-23T19:51:40.493Z,3.94
2023-01-23T19:55:38.143Z,3.90
2023-01-23T19:58:37.812Z,3.88
2023-01-23T19:59:37.892Z,3.88
2023-01-23T20:00:37.779Z,3.90
2023-01-23T20:03:41.471Z,3.88
2023-01-23T20:05:41.887Z,3.87
2023-01-23T20:09:13.261Z,3.84
2023-01-23T20:13:48.554Z,3.86
2023-01-23T20:16:21.747Z,3.80
2023-01-23T20:17:51.789Z,3.76
2023-01-23T20:19:21.898Z,3.76
2023-01-23T20:21:54.283Z,3.76
2023-01-23T20:24:24.143Z,3.78
2023-01-23T20:29:53.951Z,3.79
2023-01-23T20:33:52.691Z,3.83
2023-01-23T20:36:54.112Z,3.86
2023-01-23T20:41:32.574Z,3.80
2023-01-23T20:46:35.684Z,3.86
2023-01-23T20:51:37.257Z,3.86
2023-01-23T20:53:06.996Z,3.86
2023-01-23T20:55:08.214Z,3.84
2023-01-23T20:56:42.634Z,3.79
2023-01-23T20:59:13.903Z,3.78
2023-01-23T21:00:44.167Z,3.78
2023-01-23T21:09:47.481Z,3.70
2023-01-23T21:12:20.346Z,3.72
2023-01-23T21:16:20.408Z,3.70
2023-01-23T21:18:19.982Z,3.70
2023-01-23T21:23:25.631Z,3.75
2023-01-23T21:24:55.672Z,3.72
2023-01-23T21:26:57.335Z,3.69
2023-01-23T21:28:57.448Z,3.72
2023-01-23T21:30:57.845Z,3.72
2023-01-23T21:33:31.885Z,3.69
2023-01-23T21:35:01.518Z,3.72
2023-01-23T21:36:32.015Z,3.73
2023-01-23T21:39:36.349Z,3.72
2023-01-23T21:42:37.425Z,3.73
2023-01-23T21:43:35.690Z,3.72
2023-01-23T21:44:35.976Z,3.72
2023-01-23T21:46:05.467Z,3.73
2023-01-23T21:47:35.546Z,3.70
2023-01-23T21:50:39.869Z,3.73
2023-01-23T21:52:09.164Z,3.73
2023-01-23T21:58:43.227Z,3.78
2023-01-23T22:00:15.954Z,3.76
2023-01-23T22:02:47.052Z,3.75
2023-01-23T22:04:47.825Z,3.72
2023-01-23T22:07:20.268Z,3.73
2023-01-23T22:08:50.551Z,3.72
2023-01-23T22:10:50.825Z,3.70
2023-01-23T22:13:19.873Z,3.70
2023-01-23T22:15:19.843Z,3.68
2023-01-23T22:23:22.687Z,3.60
2023-01-23T22:24:52.416Z,3.60
2023-01-23T22:26:22.132Z,3.57
2023-01-23T22:27:51.868Z,3.57
2023-01-23T22:29:51.361Z,3.55
2023-01-23T22:33:22.510Z,3.52
2023-01-23T22:34:51.729Z,3.51
2023-01-23T22:39:24.313Z,3.54
2023-01-23T22:40:54.984Z,3.52
2023-01-23T22:43:26.407Z,3.54
2023-01-23T22:45:56.422Z,3.55
2023-01-23T22:52:00.022Z,3.54
2023-01-23T22:53:29.757Z,3.54
2023-01-23T22:55:58.979Z,3.55
2023-01-23T22:57:28.772Z,3.57
2023-01-23T22:58:28.704Z,3.55
2023-01-23T22:59:28.723Z,3.57
2023-01-23T23:00:58.512Z,3.58
2023-01-23T23:02:28.158Z,3.57
2023-01-23T23:03:57.945Z,3.55
2023-01-23T23:06:30.967Z,3.52
2023-01-23T23:07:59.737Z,3.51
2023-01-23T23:10:30.417Z,3.50
2023-01-23T23:11:59.291Z,3.50
2023-01-23T23:13:59.304Z,3.50
2023-01-23T23:15:29.594Z,3.50
2023-01-23T23:16:29.559Z,3.50
2023-01-23T23:17:29.586Z,3.47
2023-01-23T23:19:00.092Z,3.47
2023-01-23T23:22:04.401Z,3.50
2023-01-23T23:23:37.317Z,3.48
2023-01-23T23:25:06.300Z,3.48
2023-01-23T23:27:05.891Z,3.43
2023-01-23T23:31:13.292Z,3.45
2023-01-23T23:32:46.027Z,3.45
2023-01-23T23:37:47.308Z,3.43
2023-01-23T23:39:18.357Z,3.43
2023-01-23T23:42:20.910Z,3.40
2023-01-23T23:44:52.484Z,3.42
2023-01-23T23:47:55.125Z,3.47
2023-01-23T23:49:26.912Z,3.47
2023-01-23T23:51:30.617Z,3.43
2023-01-23T23:53:01.561Z,3.40
2023-01-23T23:54:01.508Z,3.40
2023-01-23T23:55:01.499Z,3.36
2023-01-23T23:56:01.477Z,3.36
2023-01-23T23:59:03.636Z,3.36
